Winona, WV (25942)

11:34 PM EDT on August 30, 2015 (GMT -0400)
Wren Lane | | Change Station
CLOSE
Current Station
Personal Weather Station
Location: Rainelle, WV
Elevation: 2405 ft
Nearby Weather Stations

Elev 2405 ft 38.04 °N, 80.92 °W | Updated 13 minutes ago

Partly Cloudy
Partly Cloudy
66.9 °F
Feels Like 66.9 °F
N
0.0
Wind Variable Wind from SSE

Today
High -- | Low -- °F
--% Chance of Precip.
Yesterday
High -- | Low -- °F
Precip. -- in
6:51 AM 7:56 PM
Full, 97% visible
Pressure 30.11 in
Visibility 10.0 miles
Clouds Scattered Clouds 12000 ft
Dew Point 66 °F
Humidity 98%
Rainfall 0.00 in
Snow Depth Not available.
UV 0 out of 12
Pollen 8.70 out of 12
Air Quality Not available.
Flu Activity Not available.
METAR KBKW 310251Z AUTO 17003KT 10SM SCT120 21/16 A3021 RMK AO2 SLP196 T02060156 50009
Pressure 30.11 in
Visibility 10.0 miles
Clouds Scattered Clouds 12000 ft
Dew Point 66 °F
Humidity 98%
Rainfall 0.00 in
Snow Depth Not available.
UV 0 out of 12
Pollen 8.70 out of 12
Air Quality Not available.
Flu Activity Not available.
METAR KBKW 310251Z AUTO 17003KT 10SM SCT120 21/16 A3021 RMK AO2 SLP196 T02060156 50009

10-Day Weather Forecast

×

Almanac

Astronomy

Aug. 30, 2015 Rise Set
Actual Time
Civil Twilight
Nautical Twilight
Astronomical Twilight
Moon
Length of Visible Light
Length of Day
Tomorrow will be .
, % of the Moon is Illuminated

Today's Extremes

State Highs State Lows

Community

WunderPhotos

Upload Photos

1,851,175 photos uploaded!

WunderBlogs® & News

Nearby

Air Quality

  Air Quality AQ Index Pollutant
Not available.

Snow Depth

Station Depth Elevation

Earthquake Activity

City Distance Mag. Time & Date
Minimum magnitude displayed is 2.5.

Coastal Water Temperatures

Place Temperature

Stations

Nearby Weather Stations

Station Location Temp. Windchill Dew Point Humidity Wind Precip. Elev Updated Type